METAR Data
IDs: Format: Raw Decoded Include TAF

Data at: 1956 UTC 14 Dec 2018

KCXO 141953Z 29015G22KT 10SM OVC015 08/07 A2993 RMK AO2 PK WND 29028/1907 SLP134 T00830067
KCXO 141853Z 29011G19KT 10SM OVC015 09/07 A2993 RMK AO2 PK WND 32027/1830 SLP133 T00890072
KCXO 141851Z 29014G20KT 10SM OVC015 09/07 A2993 RMK AO2 PK WND 32027/1830
KCXO 141753Z 29014G19KT 10SM OVC011 08/08 A2993 RMK AO2 RAB09E18 SLP136 P0000 60008 T00830078 10089 20067 50010
KCXO 141653Z 30011G18KT 10SM OVC010 08/08 A2995 RMK AO2 RAE09 CIG 009V012 SLP141 P0000 T00830078
KCXO 141553Z 32016G22KT 8SM -RA BKN012 OVC018 08/08 A2994 RMK AO2 SLP137 P0003 T00830083
KCXO 141453Z 30011G19KT 10SM -RA OVC014 09/08 A2990 RMK AO2 RAE00B37 SLP125 P0000 60005 T00890083 53022
KCXO 141353Z 26009KT 2SM -RA BR OVC008 08/08 A2987 RMK AO2 CIG 005V012 SLP113 P0003 T00780078
KCXO 141253Z 26006KT 10SM -RA OVC009 07/07 A2985 RMK AO2 RAB1156 SLP107 P0002 T00670067
KCXO 141246Z 25007KT 10SM -RA OVC009 07/07 A2985 RMK AO2 RAB1156 P0002 T00670067
KCXO 141153Z VRB06KT 10SM OVC011 07/06 A2984 RMK AO2 SLP102 60000 T00720061 10083 20067 53005
KCXO 141053Z AUTO 26007KT 10SM OVC012 07/06 A2982 RMK AO2 RAE0959 SLP097 P0000 T00720061
KCXO 140953Z AUTO 26008KT 9SM -RA OVC014 07/06 A2982 RMK AO2 RAE06B45 SLP097 P0000 T00670061
KCXO 140853Z AUTO 28009KT 8SM -RA OVC014 07/06 A2982 RMK AO2 RAB53 SLP096 P0000 60000 T00720061 53001
KCXO 140833Z AUTO 26007KT 10SM OVC014 07/06 A2982 RMK AO2 T00720056
KCXO 140753Z AUTO 27010G17KT 10SM SCT015 OVC022 07/06 A2982 RMK AO2 SLP097 T00720056
KCXO 140653Z AUTO 24008KT 10SM OVC027 08/04 A2982 RMK AO2 SLP095 T00830039
KCXO 140553Z AUTO 27007G17KT 230V290 10SM OVC027 08/04 A2982 RMK AO2 SLP095 T00830039 10178 20083 402330083 50006
KCXO 140507Z AUTO 28010G17KT 10SM BKN028 08/04 A2982 RMK AO2 T00830039
KCXO 140453Z AUTO 27012G18KT 10SM FEW028 08/04 A2982 RMK AO2 SLP097 T00830039
KCXO 140353Z AUTO 28010G17KT 10SM CLR 09/04 A2982 RMK AO2 SLP097 T00940039
KCXO 140253Z AUTO 27012G18KT 10SM CLR 12/06 A2980 RMK AO2 PK WND 29028/0213 SLP089 T01170056 53025
KCXO 140153Z 30004KT 10SM CLR 14/06 A2976 RMK AO2 SLP074 T01390056
KCXO 140053Z 28003KT 10SM BKN120 16/09 A2974 RMK AO2 SLP070 T01560094
KCXO 132353Z 30004KT 10SM SCT055 BKN100 OVC120 18/10 A2973 RMK AO2 SLP064 T01830100 10233 20183 53010
KCXO 132334Z 29007KT 10SM BKN050 BKN100 18/11 A2972 RMK AO2 T01830106
KCXO 132253Z 26006KT 10SM CLR 21/11 A2971 RMK AO2 SLP058 T02060106
KCXO 132153Z 24004KT 10SM FEW047 BKN060 BKN110 22/14 A2970 RMK AO2 SLP056 T02170144
KCXO 132053Z 23009KT 10SM FEW039 SCT055 BKN085 22/15 A2970 RMK AO2 SLP053 T02170150 55007
KCXO 131953Z 21011KT 10SM BKN038 BKN046 OVC060 22/16 A2969 RMK AO2 SLP052 T02220156
KCXO 131853Z 21013KT 10SM FEW026 SCT033 22/16 A2969 RMK AO2 SLP052 T02220156
KCXO 131753Z 21012KT 10SM SCT026 BKN035 22/17 A2972 RMK AO2 SLP060 T02220172 10222 20167 58016
KCXO 131746Z 21009KT 10SM FEW022 BKN030 BKN037 22/17 A2972 RMK AO2 T02170172
KCXO 131715Z 20008KT 10SM SCT016 BKN024 21/18 A2974 RMK AO2 T02060183
KCXO 131653Z 19010G18KT 10SM FEW008 BKN014 OVC019 21/19 A2975 RMK AO2 SLP072 T02110189
KCXO 131649Z 19014G18KT 10SM SCT010 OVC016 21/19 A2975 RMK AO2
KCXO 131553Z 16008KT 8SM OVC005 18/18 A2977 RMK AO2 SLP077 T01830183
KCXO 131453Z 12006KT 10SM BKN006 OVC012 17/17 A2977 RMK AO2 CIG 005V010 SLP078 T01720172 53000
KCXO 131353Z 13007KT 10SM BKN007 OVC012 17/17 A2976 RMK AO2 SLP076 T01720172
KCXO 131351Z 13006KT 10SM BKN007 OVC012 17/17 A2977 RMK AO2
KCXO 131253Z 11005KT 10SM OVC012 17/17 A2977 RMK AO2 LTG DSNT N SLP078 T01670167
KCXO 131248Z 12004KT 10SM OVC012 17/17 A2977 RMK AO2
KCXO 131241Z 10004KT 10SM FEW009 OVC015 17/17 A2977 RMK AO2 T01720172
KCXO 131206Z 12007KT 10SM SCT012 BKN024 OVC047 17/17 A2976 RMK AO2 T01720172
KCXO 131153Z 12006KT 10SM BKN012 BKN017 OVC047 17/17 A2976 RMK AO2 RAE21 SLP076 P0010 60049 70049 T01720172 10178 20161 56007
KCXO 131129Z AUTO 11006KT 10SM FEW007 BKN013 OVC018 17/17 A2975 RMK AO2 RAE21 P0010 T01720172
KCXO 131118Z AUTO 11006KT 10SM -RA SCT007 BKN017 OVC025 17/17 A2975 RMK AO2 P0010 T01720172
KCXO 131110Z AUTO VRB03KT 4SM -RA BR FEW005 BKN009 OVC023 17/17 A2975 RMK AO2 LTG DSNT S P0010 T01670167
KCXO 131056Z AUTO 11004KT 2 1/2SM +RA BR SCT005 BKN022 OVC075 17/17 A2977 RMK AO2 P0003 T01670167
KCXO 131053Z AUTO 13004KT 4SM +RA BR BKN005 BKN020 OVC075 17/17 A2976 RMK AO2 TSB34E49 SLP076 P0017 T01670167
KCXO 131043Z AUTO 08006KT 4SM TSRA BR BKN007 BKN022 OVC070 17/17 A2977 RMK AO2 TSB34 P0012 T01720172
KCXO 131034Z AUTO 12005KT 4SM TSRA BR FEW009 BKN040 OVC075 17/17 A2978 RMK AO2 LTG DSNT S TSB34 P0010 T01670167
KCXO 131024Z AUTO 11005KT 4SM VCTS RA BR FEW019 BKN026 OVC041 17/17 A2979 RMK AO2 LTG DSNT E-SW P0008 T01670167
KCXO 130953Z AUTO 11007KT 5SM RA BR FEW011 BKN070 OVC085 17/17 A2978 RMK AO2 LTG DSNT E-SW TSB32E47 SLP082 P0018 T01670167
KCXO 130947Z AUTO 10008KT 4SM RA BR SCT011 BKN050 OVC090 17/17 A2977 RMK AO2 LTG DSNT ALQDS TSB32E47 P0016
KCXO 130938Z AUTO 10007KT 3SM TSRA BR BKN013 OVC055 17/17 A2978 RMK AO2 LTG DSNT ALQDS TSB32 PRESFR P0014 T01670167
KCXO 130929Z AUTO 09006KT 3SM VCTS RA BR BKN010 OVC019 16/16 A2979 RMK AO2 LTG DSNT ALQDS P0011 T01610161
KCXO 130906Z AUTO VRB03KT 4SM VCTS RA BR FEW018 BKN023 OVC034 16/16 A2979 RMK AO2 LTG DSNT ALQDS P0004 T01610161
KCXO 130853Z AUTO 00000KT 5SM VCTS +RA BR SCT025 BKN031 OVC048 17/17 A2978 RMK AO2 LTG DSNT ALQDS RAB0756E12B39 SLP083 P0004 60004 T01670167 58025
KCXO 130834Z AUTO 11005KT 10SM VCTS FEW025 BKN038 OVC048 17/17 A2980 RMK AO2 LTG DSNT ALQDS RAB0756E12 P0000 T01670167